sensor_id;sensor_type;location;lat;lon;timestamp;P1;durP1;ratioP1;P2;durP2;ratioP2
77466;SDS011;66564;42.482;25.548;2023-04-01T00:00:19;13.95;;;4.60;;
77466;SDS011;66564;42.482;25.548;2023-04-01T00:02:47;11.05;;;4.32;;
77466;SDS011;66564;42.482;25.548;2023-04-01T00:05:13;6.10;;;3.70;;
77466;SDS011;66564;42.482;25.548;2023-04-01T00:07:40;9.32;;;4.10;;
77466;SDS011;66564;42.482;25.548;2023-04-01T00:10:06;8.65;;;3.78;;
77466;SDS011;66564;42.482;25.548;2023-04-01T00:12:33;9.68;;;4.03;;
77466;SDS011;66564;42.482;25.548;2023-04-01T00:14:59;7.93;;;4.40;;
77466;SDS011;66564;42.482;25.548;2023-04-01T00:17:26;8.35;;;4.25;;
77466;SDS011;66564;42.482;25.548;2023-04-01T00:19:52;6.20;;;3.83;;
77466;SDS011;66564;42.482;25.548;2023-04-01T00:22:19;6.82;;;3.60;;
77466;SDS011;66564;42.482;25.548;2023-04-01T00:24:45;5.82;;;3.65;;
77466;SDS011;66564;42.482;25.548;2023-04-01T00:27:10;7.88;;;3.85;;
77466;SDS011;66564;42.482;25.548;2023-04-01T00:29:36;5.80;;;3.90;;
77466;SDS011;66564;42.482;25.548;2023-04-01T00:32:01;6.97;;;3.38;;
77466;SDS011;66564;42.482;25.548;2023-04-01T00:34:27;7.32;;;3.65;;
77466;SDS011;66564;42.482;25.548;2023-04-01T00:36:53;7.97;;;4.00;;
77466;SDS011;66564;42.482;25.548;2023-04-01T00:39:20;7.03;;;3.88;;
77466;SDS011;66564;42.482;25.548;2023-04-01T00:41:46;7.45;;;4.32;;
77466;SDS011;66564;42.482;25.548;2023-04-01T00:44:19;10.30;;;3.67;;
77466;SDS011;66564;42.482;25.548;2023-04-01T00:46:47;7.18;;;3.85;;
77466;SDS011;66564;42.482;25.548;2023-04-01T00:49:13;5.50;;;4.13;;
77466;SDS011;66564;42.482;25.548;2023-04-01T00:51:40;7.82;;;4.18;;
77466;SDS011;66564;42.482;25.548;2023-04-01T00:54:06;7.22;;;3.83;;
77466;SDS011;66564;42.482;25.548;2023-04-01T00:56:34;11.70;;;4.30;;
77466;SDS011;66564;42.482;25.548;2023-04-01T00:59:06;11.13;;;3.97;;
77466;SDS011;66564;42.482;25.548;2023-04-01T01:01:36;6.65;;;3.80;;
77466;SDS011;66564;42.482;25.548;2023-04-01T01:04:02;6.03;;;3.55;;
77466;SDS011;66564;42.482;25.548;2023-04-01T01:11:34;8.07;;;3.97;;
77466;SDS011;66564;42.482;25.548;2023-04-01T01:14:25;10.27;;;4.13;;
77466;SDS011;66564;42.482;25.548;2023-04-01T01:16:56;7.20;;;4.25;;
77466;SDS011;66564;42.482;25.548;2023-04-01T01:19:48;6.78;;;3.70;;
77466;SDS011;66564;42.482;25.548;2023-04-01T01:22:35;7.45;;;4.05;;
77466;SDS011;66564;42.482;25.548;2023-04-01T01:28:11;7.72;;;3.63;;
77466;SDS011;66564;42.482;25.548;2023-04-01T01:36:08;8.27;;;3.97;;
77466;SDS011;66564;42.482;25.548;2023-04-01T01:41:04;9.23;;;4.28;;
77466;SDS011;66564;42.482;25.548;2023-04-01T01:43:42;7.00;;;3.88;;
77466;SDS011;66564;42.482;25.548;2023-04-01T01:46:11;7.78;;;3.80;;
77466;SDS011;66564;42.482;25.548;2023-04-01T01:48:40;8.23;;;3.40;;
77466;SDS011;66564;42.482;25.548;2023-04-01T01:51:08;7.80;;;4.57;;
77466;SDS011;66564;42.482;25.548;2023-04-01T01:53:33;10.88;;;3.90;;
77466;SDS011;66564;42.482;25.548;2023-04-01T01:55:59;7.25;;;4.00;;
77466;SDS011;66564;42.482;25.548;2023-04-01T01:58:39;8.25;;;3.65;;
77466;SDS011;66564;42.482;25.548;2023-04-01T02:01:12;7.65;;;3.85;;
77466;SDS011;66564;42.482;25.548;2023-04-01T02:03:41;7.82;;;3.88;;
77466;SDS011;66564;42.482;25.548;2023-04-01T02:06:10;7.80;;;4.45;;
77466;SDS011;66564;42.482;25.548;2023-04-01T02:08:45;10.13;;;4.22;;
77466;SDS011;66564;42.482;25.548;2023-04-01T02:11:17;5.80;;;4.10;;
77466;SDS011;66564;42.482;25.548;2023-04-01T02:16:17;11.65;;;4.55;;
77466;SDS011;66564;42.482;25.548;2023-04-01T02:18:50;8.40;;;3.55;;
77466;SDS011;66564;42.482;25.548;2023-04-01T02:21:18;8.48;;;4.13;;
77466;SDS011;66564;42.482;25.548;2023-04-01T02:23:46;6.43;;;3.67;;
77466;SDS011;66564;42.482;25.548;2023-04-01T02:26:12;7.60;;;4.00;;
77466;SDS011;66564;42.482;25.548;2023-04-01T02:28:39;8.02;;;3.80;;
77466;SDS011;66564;42.482;25.548;2023-04-01T02:31:08;8.10;;;4.13;;
77466;SDS011;66564;42.482;25.548;2023-04-01T02:33:36;9.88;;;3.97;;
77466;SDS011;66564;42.482;25.548;2023-04-01T02:36:03;11.57;;;4.88;;
77466;SDS011;66564;42.482;25.548;2023-04-01T02:38:30;9.85;;;4.10;;
77466;SDS011;66564;42.482;25.548;2023-04-01T02:40:57;6.90;;;4.25;;
77466;SDS011;66564;42.482;25.548;2023-04-01T02:43:24;10.43;;;4.82;;
77466;SDS011;66564;42.482;25.548;2023-04-01T02:45:53;7.55;;;3.80;;
77466;SDS011;66564;42.482;25.548;2023-04-01T02:48:19;8.50;;;3.88;;
77466;SDS011;66564;42.482;25.548;2023-04-01T02:50:45;6.22;;;3.80;;
77466;SDS011;66564;42.482;25.548;2023-04-01T02:53:11;8.68;;;3.70;;
77466;SDS011;66564;42.482;25.548;2023-04-01T02:55:36;5.90;;;3.72;;
77466;SDS011;66564;42.482;25.548;2023-04-01T02:58:02;6.53;;;3.60;;
77466;SDS011;66564;42.482;25.548;2023-04-01T03:00:28;7.30;;;4.03;;
77466;SDS011;66564;42.482;25.548;2023-04-01T03:02:54;7.22;;;3.42;;
77466;SDS011;66564;42.482;25.548;2023-04-01T03:05:20;7.72;;;3.72;;
77466;SDS011;66564;42.482;25.548;2023-04-01T03:07:46;9.93;;;3.58;;
77466;SDS011;66564;42.482;25.548;2023-04-01T03:10:11;7.05;;;3.78;;
77466;SDS011;66564;42.482;25.548;2023-04-01T03:12:37;11.10;;;4.07;;
77466;SDS011;66564;42.482;25.548;2023-04-01T03:15:03;7.57;;;4.30;;
77466;SDS011;66564;42.482;25.548;2023-04-01T03:17:29;10.82;;;4.07;;
77466;SDS011;66564;42.482;25.548;2023-04-01T03:19:54;5.05;;;2.97;;
77466;SDS011;66564;42.482;25.548;2023-04-01T03:22:20;6.07;;;3.75;;
77466;SDS011;66564;42.482;25.548;2023-04-01T03:24:46;8.52;;;3.75;;
77466;SDS011;66564;42.482;25.548;2023-04-01T03:27:13;7.32;;;3.45;;
77466;SDS011;66564;42.482;25.548;2023-04-01T03:29:38;6.50;;;3.28;;
77466;SDS011;66564;42.482;25.548;2023-04-01T03:32:04;12.38;;;3.70;;
77466;SDS011;66564;42.482;25.548;2023-04-01T03:34:30;6.18;;;3.33;;
77466;SDS011;66564;42.482;25.548;2023-04-01T03:36:55;8.75;;;3.40;;
77466;SDS011;66564;42.482;25.548;2023-04-01T03:39:21;6.38;;;3.42;;
77466;SDS011;66564;42.482;25.548;2023-04-01T03:41:46;6.68;;;3.80;;
77466;SDS011;66564;42.482;25.548;2023-04-01T03:44:12;6.03;;;3.03;;
77466;SDS011;66564;42.482;25.548;2023-04-01T03:46:38;9.57;;;3.65;;
77466;SDS011;66564;42.482;25.548;2023-04-01T03:49:06;4.13;;;2.83;;
77466;SDS011;66564;42.482;25.548;2023-04-01T03:51:39;5.55;;;2.95;;
77466;SDS011;66564;42.482;25.548;2023-04-01T03:54:05;7.93;;;3.17;;
77466;SDS011;66564;42.482;25.548;2023-04-01T03:56:31;9.05;;;3.90;;
77466;SDS011;66564;42.482;25.548;2023-04-01T03:58:57;9.15;;;4.20;;
77466;SDS011;66564;42.482;25.548;2023-04-01T04:01:22;8.45;;;3.60;;
77466;SDS011;66564;42.482;25.548;2023-04-01T04:03:48;6.13;;;3.38;;
77466;SDS011;66564;42.482;25.548;2023-04-01T04:06:15;4.90;;;3.00;;
77466;SDS011;66564;42.482;25.548;2023-04-01T04:08:42;5.82;;;3.35;;
77466;SDS011;66564;42.482;25.548;2023-04-01T04:11:08;5.88;;;3.50;;
77466;SDS011;66564;42.482;25.548;2023-04-01T04:13:34;5.13;;;3.38;;
77466;SDS011;66564;42.482;25.548;2023-04-01T04:16:00;5.78;;;3.53;;
77466;SDS011;66564;42.482;25.548;2023-04-01T04:18:26;5.97;;;3.28;;
77466;SDS011;66564;42.482;25.548;2023-04-01T04:20:52;8.15;;;3.38;;
77466;SDS011;66564;42.482;25.548;2023-04-01T04:23:18;12.20;;;3.20;;
77466;SDS011;66564;42.482;25.548;2023-04-01T04:25:53;6.38;;;3.42;;
77466;SDS011;66564;42.482;25.548;2023-04-01T04:28:23;4.45;;;3.03;;
77466;SDS011;66564;42.482;25.548;2023-04-01T04:30:50;7.70;;;3.58;;
77466;SDS011;66564;42.482;25.548;2023-04-01T04:33:15;9.35;;;3.47;;
77466;SDS011;66564;42.482;25.548;2023-04-01T04:35:41;10.73;;;4.53;;
77466;SDS011;66564;42.482;25.548;2023-04-01T04:38:07;5.25;;;3.40;;
77466;SDS011;66564;42.482;25.548;2023-04-01T04:40:32;6.78;;;3.30;;
77466;SDS011;66564;42.482;25.548;2023-04-01T04:42:58;8.82;;;4.00;;
77466;SDS011;66564;42.482;25.548;2023-04-01T04:45:23;14.50;;;3.78;;
77466;SDS011;66564;42.482;25.548;2023-04-01T04:47:49;9.50;;;3.05;;
77466;SDS011;66564;42.482;25.548;2023-04-01T04:50:15;9.98;;;3.35;;
77466;SDS011;66564;42.482;25.548;2023-04-01T04:52:41;8.52;;;3.97;;
77466;SDS011;66564;42.482;25.548;2023-04-01T04:55:07;5.88;;;3.65;;
77466;SDS011;66564;42.482;25.548;2023-04-01T04:57:33;12.30;;;6.03;;
77466;SDS011;66564;42.482;25.548;2023-04-01T04:59:58;18.88;;;10.40;;
77466;SDS011;66564;42.482;25.548;2023-04-01T05:02:23;13.13;;;6.22;;
77466;SDS011;66564;42.482;25.548;2023-04-01T05:04:49;14.38;;;7.15;;
77466;SDS011;66564;42.482;25.548;2023-04-01T05:07:14;14.05;;;7.35;;
77466;SDS011;66564;42.482;25.548;2023-04-01T05:09:40;9.68;;;5.65;;
77466;SDS011;66564;42.482;25.548;2023-04-01T05:12:06;8.93;;;6.00;;
77466;SDS011;66564;42.482;25.548;2023-04-01T05:14:31;21.63;;;7.28;;
77466;SDS011;66564;42.482;25.548;2023-04-01T05:16:56;24.45;;;11.80;;
77466;SDS011;66564;42.482;25.548;2023-04-01T05:19:22;15.38;;;10.70;;
77466;SDS011;66564;42.482;25.548;2023-04-01T05:21:48;10.65;;;6.43;;
77466;SDS011;66564;42.482;25.548;2023-04-01T05:24:13;12.15;;;7.28;;
77466;SDS011;66564;42.482;25.548;2023-04-01T05:26:39;13.63;;;7.05;;
77466;SDS011;66564;42.482;25.548;2023-04-01T05:29:04;10.57;;;6.78;;
77466;SDS011;66564;42.482;25.548;2023-04-01T05:31:30;10.02;;;6.80;;
77466;SDS011;66564;42.482;25.548;2023-04-01T05:33:57;18.52;;;6.70;;
77466;SDS011;66564;42.482;25.548;2023-04-01T05:36:22;10.88;;;5.75;;
77466;SDS011;66564;42.482;25.548;2023-04-01T05:38:48;10.05;;;6.15;;
77466;SDS011;66564;42.482;25.548;2023-04-01T05:41:14;11.13;;;6.55;;
77466;SDS011;66564;42.482;25.548;2023-04-01T05:43:40;8.75;;;6.25;;
77466;SDS011;66564;42.482;25.548;2023-04-01T05:46:07;12.48;;;5.75;;
77466;SDS011;66564;42.482;25.548;2023-04-01T05:48:33;13.00;;;5.85;;
77466;SDS011;66564;42.482;25.548;2023-04-01T05:51:00;16.40;;;5.75;;
77466;SDS011;66564;42.482;25.548;2023-04-01T05:53:26;9.07;;;5.68;;
77466;SDS011;66564;42.482;25.548;2023-04-01T05:55:52;12.90;;;5.15;;
77466;SDS011;66564;42.482;25.548;2023-04-01T05:58:17;11.95;;;5.57;;
77466;SDS011;66564;42.482;25.548;2023-04-01T06:00:43;8.48;;;5.00;;
77466;SDS011;66564;42.482;25.548;2023-04-01T06:03:09;7.13;;;5.00;;
77466;SDS011;66564;42.482;25.548;2023-04-01T06:05:39;8.15;;;4.40;;
77466;SDS011;66564;42.482;25.548;2023-04-01T06:08:13;8.88;;;5.50;;
77466;SDS011;66564;42.482;25.548;2023-04-01T06:11:04;9.38;;;5.15;;
77466;SDS011;66564;42.482;25.548;2023-04-01T06:16:11;15.10;;;3.92;;
77466;SDS011;66564;42.482;25.548;2023-04-01T06:18:54;7.20;;;4.47;;
77466;SDS011;66564;42.482;25.548;2023-04-01T06:24:08;5.90;;;4.13;;
77466;SDS011;66564;42.482;25.548;2023-04-01T06:27:00;8.85;;;4.95;;
77466;SDS011;66564;42.482;25.548;2023-04-01T06:29:39;6.97;;;4.30;;
77466;SDS011;66564;42.482;25.548;2023-04-01T06:32:13;13.15;;;4.93;;
77466;SDS011;66564;42.482;25.548;2023-04-01T07:07:04;8.40;;;4.70;;
77466;SDS011;66564;42.482;25.548;2023-04-01T07:09:43;10.65;;;5.70;;
77466;SDS011;66564;42.482;25.548;2023-04-01T07:12:19;9.02;;;5.25;;
77466;SDS011;66564;42.482;25.548;2023-04-01T07:14:52;7.35;;;4.70;;
77466;SDS011;66564;42.482;25.548;2023-04-01T07:17:22;8.00;;;4.78;;
77466;SDS011;66564;42.482;25.548;2023-04-01T07:22:45;8.57;;;6.13;;
77466;SDS011;66564;42.482;25.548;2023-04-01T07:25:17;13.32;;;6.95;;
77466;SDS011;66564;42.482;25.548;2023-04-01T07:27:50;11.43;;;7.25;;
77466;SDS011;66564;42.482;25.548;2023-04-01T07:30:27;12.60;;;5.47;;
77466;SDS011;66564;42.482;25.548;2023-04-01T07:33:04;12.77;;;6.82;;
77466;SDS011;66564;42.482;25.548;2023-04-01T07:36:03;11.10;;;5.57;;
77466;SDS011;66564;42.482;25.548;2023-04-01T07:42:15;8.48;;;4.85;;
77466;SDS011;66564;42.482;25.548;2023-04-01T07:49:40;9.05;;;5.82;;
77466;SDS011;66564;42.482;25.548;2023-04-01T07:58:19;11.20;;;4.47;;
77466;SDS011;66564;42.482;25.548;2023-04-01T08:01:10;10.15;;;5.00;;
77466;SDS011;66564;42.482;25.548;2023-04-01T08:03:53;10.75;;;5.70;;
77466;SDS011;66564;42.482;25.548;2023-04-01T08:06:30;10.40;;;4.85;;
77466;SDS011;66564;42.482;25.548;2023-04-01T08:11:54;9.13;;;4.18;;
77466;SDS011;66564;42.482;25.548;2023-04-01T08:22:09;7.97;;;4.10;;
77466;SDS011;66564;42.482;25.548;2023-04-01T08:24:42;10.05;;;4.20;;
77466;SDS011;66564;42.482;25.548;2023-04-01T08:27:17;7.72;;;4.30;;
77466;SDS011;66564;42.482;25.548;2023-04-01T08:29:50;8.75;;;4.32;;
77466;SDS011;66564;42.482;25.548;2023-04-01T08:32:28;5.70;;;4.45;;
77466;SDS011;66564;42.482;25.548;2023-04-01T08:37:51;8.73;;;4.45;;
77466;SDS011;66564;42.482;25.548;2023-04-01T08:46:17;6.68;;;4.03;;
77466;SDS011;66564;42.482;25.548;2023-04-01T08:51:45;12.80;;;4.32;;
77466;SDS011;66564;42.482;25.548;2023-04-01T09:14:19;7.55;;;3.90;;
77466;SDS011;66564;42.482;25.548;2023-04-01T09:28:59;6.38;;;4.07;;
77466;SDS011;66564;42.482;25.548;2023-04-01T09:31:22;14.07;;;4.75;;
77466;SDS011;66564;42.482;25.548;2023-04-01T09:44:49;10.45;;;5.43;;
77466;SDS011;66564;42.482;25.548;2023-04-01T09:47:42;16.00;;;6.10;;
77466;SDS011;66564;42.482;25.548;2023-04-01T10:06:56;15.90;;;5.82;;
77466;SDS011;66564;42.482;25.548;2023-04-01T10:16:30;16.45;;;5.68;;
77466;SDS011;66564;42.482;25.548;2023-04-01T10:21:53;15.10;;;7.38;;
77466;SDS011;66564;42.482;25.548;2023-04-01T10:29:45;9.80;;;5.30;;
77466;SDS011;66564;42.482;25.548;2023-04-01T11:17:59;20.92;;;5.45;;
77466;SDS011;66564;42.482;25.548;2023-04-01T11:23:45;14.45;;;5.22;;
77466;SDS011;66564;42.482;25.548;2023-04-01T11:27:02;12.65;;;4.57;;
77466;SDS011;66564;42.482;25.548;2023-04-01T11:40:44;13.57;;;5.72;;
77466;SDS011;66564;42.482;25.548;2023-04-01T11:46:10;12.23;;;5.85;;
77466;SDS011;66564;42.482;25.548;2023-04-01T11:57:43;12.18;;;4.70;;
77466;SDS011;66564;42.482;25.548;2023-04-01T12:08:55;14.80;;;4.80;;
77466;SDS011;66564;42.482;25.548;2023-04-01T12:20:03;11.95;;;4.55;;
77466;SDS011;66564;42.482;25.548;2023-04-01T12:28:54;16.60;;;6.63;;
77466;SDS011;66564;42.482;25.548;2023-04-01T12:31:34;11.38;;;4.35;;
77466;SDS011;66564;42.482;25.548;2023-04-01T12:43:02;12.52;;;4.50;;
77466;SDS011;66564;42.482;25.548;2023-04-01T12:51:09;19.30;;;4.18;;
77466;SDS011;66564;42.482;25.548;2023-04-01T13:01:56;11.88;;;3.58;;
77466;SDS011;66564;42.482;25.548;2023-04-01T13:04:56;14.52;;;4.00;;
77466;SDS011;66564;42.482;25.548;2023-04-01T13:07:44;15.73;;;4.10;;
77466;SDS011;66564;42.482;25.548;2023-04-01T13:14:00;8.55;;;3.17;;
77466;SDS011;66564;42.482;25.548;2023-04-01T13:16:16;13.18;;;4.20;;
77466;SDS011;66564;42.482;25.548;2023-04-01T13:19:09;13.82;;;4.57;;
77466;SDS011;66564;42.482;25.548;2023-04-01T13:21:51;12.70;;;4.07;;
77466;SDS011;66564;42.482;25.548;2023-04-01T13:35:43;13.35;;;4.43;;
77466;SDS011;66564;42.482;25.548;2023-04-01T13:41:01;11.57;;;3.83;;
77466;SDS011;66564;42.482;25.548;2023-04-01T13:43:45;10.48;;;3.60;;
77466;SDS011;66564;42.482;25.548;2023-04-01T13:48:50;10.23;;;3.65;;
77466;SDS011;66564;42.482;25.548;2023-04-01T13:56:57;13.20;;;4.15;;
77466;SDS011;66564;42.482;25.548;2023-04-01T13:59:46;17.25;;;5.13;;
77466;SDS011;66564;42.482;25.548;2023-04-01T14:13:31;14.63;;;4.10;;
77466;SDS011;66564;42.482;25.548;2023-04-01T14:32:18;16.27;;;4.65;;
77466;SDS011;66564;42.482;25.548;2023-04-01T14:40:46;15.85;;;5.00;;
77466;SDS011;66564;42.482;25.548;2023-04-01T14:50:21;26.65;;;7.90;;
77466;SDS011;66564;42.482;25.548;2023-04-01T14:52:56;13.77;;;5.05;;
77466;SDS011;66564;42.482;25.548;2023-04-01T14:58:43;8.25;;;4.10;;
77466;SDS011;66564;42.482;25.548;2023-04-01T15:03:40;6.97;;;3.90;;
77466;SDS011;66564;42.482;25.548;2023-04-01T15:06:36;5.72;;;3.90;;
77466;SDS011;66564;42.482;25.548;2023-04-01T15:09:30;5.53;;;3.58;;
77466;SDS011;66564;42.482;25.548;2023-04-01T15:23:25;6.72;;;3.67;;
77466;SDS011;66564;42.482;25.548;2023-04-01T15:28:39;8.30;;;4.47;;
77466;SDS011;66564;42.482;25.548;2023-04-01T15:31:32;7.65;;;4.43;;
77466;SDS011;66564;42.482;25.548;2023-04-01T15:40:11;7.65;;;4.40;;
77466;SDS011;66564;42.482;25.548;2023-04-01T15:42:53;7.05;;;4.20;;
77466;SDS011;66564;42.482;25.548;2023-04-01T16:00:30;7.85;;;4.47;;
77466;SDS011;66564;42.482;25.548;2023-04-01T16:07:10;7.15;;;4.35;;
77466;SDS011;66564;42.482;25.548;2023-04-01T16:14:16;7.95;;;4.30;;
77466;SDS011;66564;42.482;25.548;2023-04-01T16:17:03;7.45;;;5.13;;
77466;SDS011;66564;42.482;25.548;2023-04-01T16:20:35;4.55;;;3.88;;
77466;SDS011;66564;42.482;25.548;2023-04-01T16:24:00;6.47;;;4.60;;
77466;SDS011;66564;42.482;25.548;2023-04-01T16:42:51;6.88;;;3.72;;
77466;SDS011;66564;42.482;25.548;2023-04-01T16:55:13;5.40;;;3.40;;
77466;SDS011;66564;42.482;25.548;2023-04-01T17:02:12;4.75;;;3.17;;
77466;SDS011;66564;42.482;25.548;2023-04-01T17:18:30;2.90;;;2.40;;
77466;SDS011;66564;42.482;25.548;2023-04-01T17:24:56;3.50;;;2.42;;
77466;SDS011;66564;42.482;25.548;2023-04-01T17:27:34;2.75;;;2.33;;
77466;SDS011;66564;42.482;25.548;2023-04-01T17:37:36;5.70;;;2.35;;
77466;SDS011;66564;42.482;25.548;2023-04-01T17:40:37;3.47;;;1.98;;
77466;SDS011;66564;42.482;25.548;2023-04-01T17:43:42;3.08;;;2.25;;
77466;SDS011;66564;42.482;25.548;2023-04-01T17:47:00;3.03;;;2.47;;
77466;SDS011;66564;42.482;25.548;2023-04-01T17:50:17;6.22;;;2.67;;
77466;SDS011;66564;42.482;25.548;2023-04-01T18:00:14;2.78;;;1.95;;
77466;SDS011;66564;42.482;25.548;2023-04-01T18:02:54;2.55;;;2.30;;
77466;SDS011;66564;42.482;25.548;2023-04-01T18:09:24;5.28;;;2.50;;
77466;SDS011;66564;42.482;25.548;2023-04-01T18:13:13;3.80;;;2.38;;
77466;SDS011;66564;42.482;25.548;2023-04-01T18:19:25;4.18;;;2.90;;
77466;SDS011;66564;42.482;25.548;2023-04-01T18:26:19;4.05;;;2.17;;
77466;SDS011;66564;42.482;25.548;2023-04-01T18:36:16;3.03;;;2.72;;
77466;SDS011;66564;42.482;25.548;2023-04-01T18:39:40;7.65;;;2.90;;
77466;SDS011;66564;42.482;25.548;2023-04-01T18:43:09;4.70;;;3.10;;
77466;SDS011;66564;42.482;25.548;2023-04-01T18:46:41;4.63;;;2.72;;
77466;SDS011;66564;42.482;25.548;2023-04-01T18:50:13;3.42;;;2.65;;
77466;SDS011;66564;42.482;25.548;2023-04-01T18:53:35;3.28;;;2.63;;
77466;SDS011;66564;42.482;25.548;2023-04-01T18:57:04;3.75;;;2.47;;
77466;SDS011;66564;42.482;25.548;2023-04-01T19:00:32;3.65;;;2.50;;
77466;SDS011;66564;42.482;25.548;2023-04-01T19:10:47;6.47;;;3.60;;
77466;SDS011;66564;42.482;25.548;2023-04-01T19:16:28;6.15;;;4.10;;
77466;SDS011;66564;42.482;25.548;2023-04-01T19:19:40;4.53;;;3.92;;
77466;SDS011;66564;42.482;25.548;2023-04-01T19:22:50;7.88;;;4.13;;
77466;SDS011;66564;42.482;25.548;2023-04-01T19:25:54;6.15;;;4.60;;
77466;SDS011;66564;42.482;25.548;2023-04-01T19:35:33;16.38;;;7.75;;
77466;SDS011;66564;42.482;25.548;2023-04-01T19:38:04;10.20;;;5.90;;
77466;SDS011;66564;42.482;25.548;2023-04-01T19:40:46;7.45;;;4.93;;
77466;SDS011;66564;42.482;25.548;2023-04-01T19:52:00;7.32;;;4.25;;
77466;SDS011;66564;42.482;25.548;2023-04-01T19:54:34;6.50;;;3.90;;
77466;SDS011;66564;42.482;25.548;2023-04-01T20:00:28;4.45;;;3.53;;
77466;SDS011;66564;42.482;25.548;2023-04-01T20:08:15;4.35;;;2.80;;
77466;SDS011;66564;42.482;25.548;2023-04-01T20:18:39;3.88;;;2.35;;
77466;SDS011;66564;42.482;25.548;2023-04-01T20:24:14;5.60;;;2.83;;
77466;SDS011;66564;42.482;25.548;2023-04-01T20:26:48;4.45;;;2.72;;
77466;SDS011;66564;42.482;25.548;2023-04-01T20:29:23;5.15;;;3.90;;
77466;SDS011;66564;42.482;25.548;2023-04-01T20:32:49;5.28;;;3.58;;
77466;SDS011;66564;42.482;25.548;2023-04-01T20:42:28;3.47;;;2.40;;
77466;SDS011;66564;42.482;25.548;2023-04-01T20:52:17;3.92;;;2.50;;
77466;SDS011;66564;42.482;25.548;2023-04-01T21:08:14;2.92;;;2.28;;
77466;SDS011;66564;42.482;25.548;2023-04-01T21:17:35;5.57;;;2.60;;
77466;SDS011;66564;42.482;25.548;2023-04-01T21:21:34;5.32;;;2.80;;
77466;SDS011;66564;42.482;25.548;2023-04-01T21:24:34;4.03;;;2.60;;
77466;SDS011;66564;42.482;25.548;2023-04-01T21:36:54;3.88;;;2.75;;
77466;SDS011;66564;42.482;25.548;2023-04-01T21:40:00;4.95;;;2.78;;
77466;SDS011;66564;42.482;25.548;2023-04-01T21:46:24;4.75;;;2.50;;
77466;SDS011;66564;42.482;25.548;2023-04-01T21:59:23;3.10;;;2.38;;
77466;SDS011;66564;42.482;25.548;2023-04-01T22:23:23;4.28;;;2.67;;
77466;SDS011;66564;42.482;25.548;2023-04-01T22:30:59;4.07;;;2.38;;
77466;SDS011;66564;42.482;25.548;2023-04-01T22:39:46;3.00;;;2.20;;
77466;SDS011;66564;42.482;25.548;2023-04-01T22:43:01;2.72;;;2.25;;
77466;SDS011;66564;42.482;25.548;2023-04-01T22:55:40;5.35;;;2.75;;
77466;SDS011;66564;42.482;25.548;2023-04-01T22:59:08;2.70;;;2.22;;
77466;SDS011;66564;42.482;25.548;2023-04-01T23:02:13;3.25;;;2.30;;
77466;SDS011;66564;42.482;25.548;2023-04-01T23:05:53;3.15;;;2.22;;
77466;SDS011;66564;42.482;25.548;2023-04-01T23:09:20;4.05;;;2.50;;
77466;SDS011;66564;42.482;25.548;2023-04-01T23:12:45;2.72;;;2.40;;
77466;SDS011;66564;42.482;25.548;2023-04-01T23:16:10;3.92;;;2.38;;
77466;SDS011;66564;42.482;25.548;2023-04-01T23:31:00;6.65;;;2.40;;
77466;SDS011;66564;42.482;25.548;2023-04-01T23:37:12;3.25;;;2.40;;
77466;SDS011;66564;42.482;25.548;2023-04-01T23:40:39;3.15;;;2.30;;
77466;SDS011;66564;42.482;25.548;2023-04-01T23:44:10;2.72;;;2.42;;
77466;SDS011;66564;42.482;25.548;2023-04-01T23:47:36;3.67;;;2.40;;
77466;SDS011;66564;42.482;25.548;2023-04-01T23:51:00;2.72;;;2.20;;
77466;SDS011;66564;42.482;25.548;2023-04-01T23:57:25;4.57;;;2.38;;
